sensor_id;sensor_type;location;lat;lon;timestamp;P1;durP1;ratioP1;P2;durP2;ratioP2
33381;SDS011;21342;48.786;9.166;2022-07-29T00:02:00;7.77;;;7.00;;
33381;SDS011;21342;48.786;9.166;2022-07-29T00:04:27;7.63;;;6.90;;
33381;SDS011;21342;48.786;9.166;2022-07-29T00:06:54;7.47;;;6.80;;
33381;SDS011;21342;48.786;9.166;2022-07-29T00:09:23;7.63;;;6.40;;
33381;SDS011;21342;48.786;9.166;2022-07-29T00:11:50;7.27;;;6.57;;
33381;SDS011;21342;48.786;9.166;2022-07-29T00:14:17;7.03;;;6.30;;
33381;SDS011;21342;48.786;9.166;2022-07-29T00:16:44;7.97;;;6.00;;
33381;SDS011;21342;48.786;9.166;2022-07-29T00:19:11;7.37;;;6.77;;
33381;SDS011;21342;48.786;9.166;2022-07-29T00:21:38;7.80;;;6.80;;
33381;SDS011;21342;48.786;9.166;2022-07-29T00:24:06;6.87;;;6.37;;
33381;SDS011;21342;48.786;9.166;2022-07-29T00:26:34;7.70;;;7.00;;
33381;SDS011;21342;48.786;9.166;2022-07-29T00:29:03;9.10;;;6.60;;
33381;SDS011;21342;48.786;9.166;2022-07-29T00:31:30;7.07;;;6.47;;
33381;SDS011;21342;48.786;9.166;2022-07-29T00:33:58;9.73;;;7.10;;
33381;SDS011;21342;48.786;9.166;2022-07-29T00:36:25;7.00;;;6.40;;
33381;SDS011;21342;48.786;9.166;2022-07-29T00:38:51;7.87;;;7.27;;
33381;SDS011;21342;48.786;9.166;2022-07-29T00:41:19;10.37;;;6.50;;
33381;SDS011;21342;48.786;9.166;2022-07-29T00:43:48;7.40;;;6.80;;
33381;SDS011;21342;48.786;9.166;2022-07-29T00:46:15;8.13;;;6.17;;
33381;SDS011;21342;48.786;9.166;2022-07-29T00:48:43;8.37;;;7.57;;
33381;SDS011;21342;48.786;9.166;2022-07-29T00:51:10;7.40;;;6.70;;
33381;SDS011;21342;48.786;9.166;2022-07-29T00:53:39;7.07;;;6.37;;
33381;SDS011;21342;48.786;9.166;2022-07-29T00:56:06;7.53;;;6.83;;
33381;SDS011;21342;48.786;9.166;2022-07-29T00:58:33;8.07;;;7.37;;
33381;SDS011;21342;48.786;9.166;2022-07-29T01:01:02;7.73;;;6.80;;
33381;SDS011;21342;48.786;9.166;2022-07-29T01:03:29;6.90;;;6.30;;
33381;SDS011;21342;48.786;9.166;2022-07-29T01:05:56;8.57;;;7.23;;
33381;SDS011;21342;48.786;9.166;2022-07-29T01:08:24;6.50;;;6.00;;
33381;SDS011;21342;48.786;9.166;2022-07-29T01:10:51;7.60;;;6.90;;
33381;SDS011;21342;48.786;9.166;2022-07-29T01:13:19;8.70;;;6.67;;
33381;SDS011;21342;48.786;9.166;2022-07-29T01:15:48;6.93;;;6.30;;
33381;SDS011;21342;48.786;9.166;2022-07-29T01:18:22;6.77;;;6.27;;
33381;SDS011;21342;48.786;9.166;2022-07-29T01:21:03;8.07;;;7.27;;
33381;SDS011;21342;48.786;9.166;2022-07-29T01:23:47;7.10;;;6.00;;
33381;SDS011;21342;48.786;9.166;2022-07-29T01:26:34;6.83;;;6.17;;
33381;SDS011;21342;48.786;9.166;2022-07-29T01:29:14;6.63;;;6.00;;
33381;SDS011;21342;48.786;9.166;2022-07-29T01:31:46;6.40;;;5.90;;
33381;SDS011;21342;48.786;9.166;2022-07-29T01:34:21;6.30;;;5.80;;
33381;SDS011;21342;48.786;9.166;2022-07-29T01:36:54;6.30;;;5.77;;
33381;SDS011;21342;48.786;9.166;2022-07-29T01:39:27;6.70;;;6.20;;
33381;SDS011;21342;48.786;9.166;2022-07-29T01:42:08;5.77;;;5.27;;
33381;SDS011;21342;48.786;9.166;2022-07-29T01:44:45;6.03;;;5.43;;
33381;SDS011;21342;48.786;9.166;2022-07-29T01:47:20;6.20;;;5.60;;
33381;SDS011;21342;48.786;9.166;2022-07-29T01:49:54;7.23;;;5.90;;
33381;SDS011;21342;48.786;9.166;2022-07-29T01:52:27;5.70;;;5.20;;
33381;SDS011;21342;48.786;9.166;2022-07-29T01:55:02;6.33;;;5.70;;
33381;SDS011;21342;48.786;9.166;2022-07-29T01:57:33;6.40;;;5.80;;
33381;SDS011;21342;48.786;9.166;2022-07-29T02:00:06;6.70;;;6.10;;
33381;SDS011;21342;48.786;9.166;2022-07-29T02:02:35;6.97;;;5.70;;
33381;SDS011;21342;48.786;9.166;2022-07-29T02:05:04;6.43;;;5.93;;
33381;SDS011;21342;48.786;9.166;2022-07-29T02:07:35;6.97;;;6.20;;
33381;SDS011;21342;48.786;9.166;2022-07-29T02:10:04;6.27;;;5.70;;
33381;SDS011;21342;48.786;9.166;2022-07-29T02:12:33;6.20;;;5.70;;
33381;SDS011;21342;48.786;9.166;2022-07-29T02:15:02;6.50;;;5.80;;
33381;SDS011;21342;48.786;9.166;2022-07-29T02:17:35;5.93;;;5.43;;
33381;SDS011;21342;48.786;9.166;2022-07-29T02:20:07;7.90;;;5.80;;
33381;SDS011;21342;48.786;9.166;2022-07-29T02:22:37;6.97;;;5.27;;
33381;SDS011;21342;48.786;9.166;2022-07-29T02:25:06;5.17;;;4.80;;
33381;SDS011;21342;48.786;9.166;2022-07-29T02:27:35;5.63;;;5.13;;
33381;SDS011;21342;48.786;9.166;2022-07-29T02:30:04;5.83;;;5.33;;
33381;SDS011;21342;48.786;9.166;2022-07-29T02:32:35;6.20;;;5.70;;
33381;SDS011;21342;48.786;9.166;2022-07-29T02:35:04;6.00;;;5.60;;
33381;SDS011;21342;48.786;9.166;2022-07-29T02:37:32;5.60;;;5.10;;
33381;SDS011;21342;48.786;9.166;2022-07-29T02:40:01;5.50;;;5.00;;
33381;SDS011;21342;48.786;9.166;2022-07-29T02:42:29;5.57;;;5.07;;
33381;SDS011;21342;48.786;9.166;2022-07-29T02:44:59;5.63;;;5.20;;
33381;SDS011;21342;48.786;9.166;2022-07-29T02:47:30;5.80;;;5.30;;
33381;SDS011;21342;48.786;9.166;2022-07-29T02:50:04;5.20;;;4.90;;
33381;SDS011;21342;48.786;9.166;2022-07-29T02:52:37;5.20;;;4.67;;
33381;SDS011;21342;48.786;9.166;2022-07-29T02:55:10;5.77;;;5.27;;
33381;SDS011;21342;48.786;9.166;2022-07-29T02:57:42;5.23;;;4.83;;
33381;SDS011;21342;48.786;9.166;2022-07-29T03:00:12;5.40;;;5.00;;
33381;SDS011;21342;48.786;9.166;2022-07-29T03:02:43;5.77;;;5.23;;
33381;SDS011;21342;48.786;9.166;2022-07-29T03:05:15;5.30;;;4.90;;
33381;SDS011;21342;48.786;9.166;2022-07-29T03:07:47;5.70;;;5.20;;
33381;SDS011;21342;48.786;9.166;2022-07-29T03:10:17;5.40;;;4.90;;
33381;SDS011;21342;48.786;9.166;2022-07-29T03:12:45;5.30;;;4.77;;
33381;SDS011;21342;48.786;9.166;2022-07-29T03:15:13;6.13;;;5.63;;
33381;SDS011;21342;48.786;9.166;2022-07-29T03:17:42;5.90;;;5.40;;
33381;SDS011;21342;48.786;9.166;2022-07-29T03:20:10;7.53;;;5.47;;
33381;SDS011;21342;48.786;9.166;2022-07-29T03:22:39;5.83;;;5.13;;
33381;SDS011;21342;48.786;9.166;2022-07-29T03:25:09;9.27;;;4.93;;
33381;SDS011;21342;48.786;9.166;2022-07-29T03:27:37;6.83;;;6.07;;
33381;SDS011;21342;48.786;9.166;2022-07-29T03:30:04;5.37;;;4.53;;
33381;SDS011;21342;48.786;9.166;2022-07-29T03:32:32;5.03;;;4.63;;
33381;SDS011;21342;48.786;9.166;2022-07-29T03:35:01;5.03;;;4.63;;
33381;SDS011;21342;48.786;9.166;2022-07-29T03:37:29;5.80;;;5.30;;
33381;SDS011;21342;48.786;9.166;2022-07-29T03:39:57;5.30;;;4.80;;
33381;SDS011;21342;48.786;9.166;2022-07-29T03:42:24;5.73;;;5.23;;
33381;SDS011;21342;48.786;9.166;2022-07-29T03:44:54;5.77;;;5.17;;
33381;SDS011;21342;48.786;9.166;2022-07-29T03:47:27;7.83;;;5.17;;
33381;SDS011;21342;48.786;9.166;2022-07-29T03:49:56;5.10;;;4.70;;
33381;SDS011;21342;48.786;9.166;2022-07-29T03:52:27;5.40;;;4.97;;
33381;SDS011;21342;48.786;9.166;2022-07-29T03:54:55;5.73;;;5.33;;
33381;SDS011;21342;48.786;9.166;2022-07-29T03:57:23;5.70;;;5.20;;
33381;SDS011;21342;48.786;9.166;2022-07-29T03:59:53;6.40;;;5.90;;
33381;SDS011;21342;48.786;9.166;2022-07-29T04:02:21;6.60;;;5.90;;
33381;SDS011;21342;48.786;9.166;2022-07-29T04:04:49;5.87;;;5.40;;
33381;SDS011;21342;48.786;9.166;2022-07-29T04:07:17;5.90;;;4.93;;
33381;SDS011;21342;48.786;9.166;2022-07-29T04:09:45;5.93;;;5.47;;
33381;SDS011;21342;48.786;9.166;2022-07-29T04:12:12;5.67;;;4.93;;
33381;SDS011;21342;48.786;9.166;2022-07-29T04:14:39;5.87;;;5.10;;
33381;SDS011;21342;48.786;9.166;2022-07-29T04:17:07;4.57;;;4.27;;
33381;SDS011;21342;48.786;9.166;2022-07-29T04:19:34;5.27;;;4.87;;
33381;SDS011;21342;48.786;9.166;2022-07-29T04:22:01;5.50;;;5.00;;
33381;SDS011;21342;48.786;9.166;2022-07-29T04:24:28;4.80;;;4.40;;
33381;SDS011;21342;48.786;9.166;2022-07-29T04:26:57;4.93;;;4.43;;
33381;SDS011;21342;48.786;9.166;2022-07-29T04:29:24;4.63;;;4.23;;
33381;SDS011;21342;48.786;9.166;2022-07-29T04:31:51;5.10;;;4.70;;
33381;SDS011;21342;48.786;9.166;2022-07-29T04:34:18;5.03;;;4.73;;
33381;SDS011;21342;48.786;9.166;2022-07-29T04:36:46;5.83;;;4.97;;
33381;SDS011;21342;48.786;9.166;2022-07-29T04:39:13;5.10;;;4.70;;
33381;SDS011;21342;48.786;9.166;2022-07-29T04:41:40;6.97;;;5.07;;
33381;SDS011;21342;48.786;9.166;2022-07-29T04:44:09;5.03;;;4.57;;
33381;SDS011;21342;48.786;9.166;2022-07-29T04:46:36;5.77;;;5.37;;
33381;SDS011;21342;48.786;9.166;2022-07-29T04:49:03;5.33;;;4.73;;
33381;SDS011;21342;48.786;9.166;2022-07-29T04:51:30;5.40;;;4.97;;
33381;SDS011;21342;48.786;9.166;2022-07-29T04:53:57;4.77;;;4.40;;
33381;SDS011;21342;48.786;9.166;2022-07-29T04:56:25;7.13;;;4.80;;
33381;SDS011;21342;48.786;9.166;2022-07-29T04:58:52;4.57;;;3.93;;
33381;SDS011;21342;48.786;9.166;2022-07-29T05:01:21;4.80;;;4.30;;
33381;SDS011;21342;48.786;9.166;2022-07-29T05:03:48;4.73;;;4.23;;
33381;SDS011;21342;48.786;9.166;2022-07-29T05:06:15;4.63;;;4.07;;
33381;SDS011;21342;48.786;9.166;2022-07-29T05:08:43;4.50;;;4.07;;
33381;SDS011;21342;48.786;9.166;2022-07-29T05:11:10;4.63;;;4.23;;
33381;SDS011;21342;48.786;9.166;2022-07-29T05:13:37;4.70;;;4.10;;
33381;SDS011;21342;48.786;9.166;2022-07-29T05:16:04;4.43;;;4.10;;
33381;SDS011;21342;48.786;9.166;2022-07-29T05:18:33;7.10;;;3.70;;
33381;SDS011;21342;48.786;9.166;2022-07-29T05:21:00;3.90;;;3.60;;
33381;SDS011;21342;48.786;9.166;2022-07-29T05:23:27;4.20;;;3.83;;
33381;SDS011;21342;48.786;9.166;2022-07-29T05:25:55;3.90;;;3.53;;
33381;SDS011;21342;48.786;9.166;2022-07-29T05:28:22;4.00;;;3.70;;
33381;SDS011;21342;48.786;9.166;2022-07-29T05:30:49;4.53;;;3.70;;
33381;SDS011;21342;48.786;9.166;2022-07-29T05:33:16;3.90;;;3.40;;
33381;SDS011;21342;48.786;9.166;2022-07-29T05:35:45;3.70;;;3.40;;
33381;SDS011;21342;48.786;9.166;2022-07-29T05:38:12;4.00;;;3.60;;
33381;SDS011;21342;48.786;9.166;2022-07-29T05:40:39;3.47;;;3.27;;
33381;SDS011;21342;48.786;9.166;2022-07-29T05:43:06;4.33;;;3.60;;
33381;SDS011;21342;48.786;9.166;2022-07-29T05:45:34;4.87;;;3.50;;
33381;SDS011;21342;48.786;9.166;2022-07-29T05:48:02;3.90;;;3.60;;
33381;SDS011;21342;48.786;9.166;2022-07-29T05:50:29;3.87;;;3.57;;
33381;SDS011;21342;48.786;9.166;2022-07-29T05:52:58;4.20;;;3.80;;
33381;SDS011;21342;48.786;9.166;2022-07-29T05:55:25;3.67;;;3.37;;
33381;SDS011;21342;48.786;9.166;2022-07-29T05:57:52;3.37;;;3.17;;
33381;SDS011;21342;48.786;9.166;2022-07-29T06:00:19;3.87;;;3.57;;
33381;SDS011;21342;48.786;9.166;2022-07-29T06:02:47;5.30;;;3.50;;
33381;SDS011;21342;48.786;9.166;2022-07-29T06:05:14;5.33;;;4.33;;
33381;SDS011;21342;48.786;9.166;2022-07-29T06:07:42;4.17;;;3.77;;
33381;SDS011;21342;48.786;9.166;2022-07-29T06:10:10;4.67;;;3.77;;
33381;SDS011;21342;48.786;9.166;2022-07-29T06:12:38;4.20;;;3.90;;
33381;SDS011;21342;48.786;9.166;2022-07-29T06:15:05;5.20;;;3.70;;
33381;SDS011;21342;48.786;9.166;2022-07-29T06:17:33;4.40;;;3.60;;
33381;SDS011;21342;48.786;9.166;2022-07-29T06:20:01;4.67;;;4.27;;
33381;SDS011;21342;48.786;9.166;2022-07-29T06:22:28;4.30;;;4.00;;
33381;SDS011;21342;48.786;9.166;2022-07-29T06:24:55;4.43;;;4.03;;
33381;SDS011;21342;48.786;9.166;2022-07-29T06:27:24;4.20;;;3.80;;
33381;SDS011;21342;48.786;9.166;2022-07-29T06:29:51;4.57;;;4.17;;
33381;SDS011;21342;48.786;9.166;2022-07-29T06:32:23;3.93;;;3.63;;
33381;SDS011;21342;48.786;9.166;2022-07-29T06:34:50;4.70;;;4.30;;
33381;SDS011;21342;48.786;9.166;2022-07-29T06:37:17;4.07;;;3.67;;
33381;SDS011;21342;48.786;9.166;2022-07-29T06:39:45;4.57;;;4.17;;
33381;SDS011;21342;48.786;9.166;2022-07-29T06:42:12;5.23;;;3.80;;
33381;SDS011;21342;48.786;9.166;2022-07-29T06:44:41;4.63;;;4.00;;
33381;SDS011;21342;48.786;9.166;2022-07-29T06:47:08;4.93;;;4.13;;
33381;SDS011;21342;48.786;9.166;2022-07-29T06:49:35;4.30;;;4.00;;
33381;SDS011;21342;48.786;9.166;2022-07-29T06:52:03;4.87;;;3.90;;
33381;SDS011;21342;48.786;9.166;2022-07-29T06:54:30;5.27;;;4.77;;
33381;SDS011;21342;48.786;9.166;2022-07-29T06:56:57;4.77;;;4.37;;
33381;SDS011;21342;48.786;9.166;2022-07-29T06:59:25;5.40;;;4.90;;
33381;SDS011;21342;48.786;9.166;2022-07-29T07:01:54;4.60;;;4.30;;
33381;SDS011;21342;48.786;9.166;2022-07-29T07:04:21;6.07;;;3.83;;
33381;SDS011;21342;48.786;9.166;2022-07-29T07:06:48;6.60;;;4.67;;
33381;SDS011;21342;48.786;9.166;2022-07-29T07:09:15;4.40;;;4.10;;
33381;SDS011;21342;48.786;9.166;2022-07-29T07:11:42;4.20;;;3.77;;
33381;SDS011;21342;48.786;9.166;2022-07-29T07:14:09;4.90;;;4.50;;
33381;SDS011;21342;48.786;9.166;2022-07-29T07:16:36;8.07;;;5.40;;
33381;SDS011;21342;48.786;9.166;2022-07-29T07:19:05;5.40;;;4.90;;
33381;SDS011;21342;48.786;9.166;2022-07-29T07:21:32;4.73;;;4.23;;
33381;SDS011;21342;48.786;9.166;2022-07-29T07:24:01;7.03;;;5.00;;
33381;SDS011;21342;48.786;9.166;2022-07-29T07:26:28;4.83;;;4.40;;
33381;SDS011;21342;48.786;9.166;2022-07-29T07:28:56;6.30;;;5.77;;
33381;SDS011;21342;48.786;9.166;2022-07-29T07:31:23;5.23;;;4.83;;
33381;SDS011;21342;48.786;9.166;2022-07-29T07:33:50;4.67;;;4.27;;
33381;SDS011;21342;48.786;9.166;2022-07-29T07:36:19;6.13;;;5.10;;
33381;SDS011;21342;48.786;9.166;2022-07-29T07:38:47;5.07;;;4.63;;
33381;SDS011;21342;48.786;9.166;2022-07-29T07:41:14;5.20;;;4.80;;
33381;SDS011;21342;48.786;9.166;2022-07-29T07:43:41;5.67;;;5.07;;
33381;SDS011;21342;48.786;9.166;2022-07-29T07:46:08;4.57;;;4.17;;
33381;SDS011;21342;48.786;9.166;2022-07-29T07:48:36;5.40;;;4.20;;
33381;SDS011;21342;48.786;9.166;2022-07-29T07:51:03;5.53;;;4.30;;
33381;SDS011;21342;48.786;9.166;2022-07-29T07:53:31;5.30;;;4.67;;
33381;SDS011;21342;48.786;9.166;2022-07-29T07:55:58;5.40;;;4.90;;
33381;SDS011;21342;48.786;9.166;2022-07-29T07:58:26;4.67;;;4.27;;
33381;SDS011;21342;48.786;9.166;2022-07-29T08:00:53;5.27;;;4.73;;
33381;SDS011;21342;48.786;9.166;2022-07-29T08:03:20;5.70;;;4.70;;
33381;SDS011;21342;48.786;9.166;2022-07-29T08:05:47;4.80;;;4.40;;
33381;SDS011;21342;48.786;9.166;2022-07-29T08:08:16;5.07;;;4.70;;
33381;SDS011;21342;48.786;9.166;2022-07-29T08:10:44;4.50;;;4.20;;
33381;SDS011;21342;48.786;9.166;2022-07-29T08:13:22;5.53;;;4.80;;
33381;SDS011;21342;48.786;9.166;2022-07-29T08:15:50;5.17;;;4.53;;
33381;SDS011;21342;48.786;9.166;2022-07-29T08:18:22;5.50;;;4.40;;
33381;SDS011;21342;48.786;9.166;2022-07-29T08:20:50;10.10;;;4.50;;
33381;SDS011;21342;48.786;9.166;2022-07-29T08:23:17;7.10;;;5.50;;
33381;SDS011;21342;48.786;9.166;2022-07-29T08:25:46;4.77;;;4.47;;
33381;SDS011;21342;48.786;9.166;2022-07-29T08:28:13;4.60;;;4.20;;
33381;SDS011;21342;48.786;9.166;2022-07-29T08:30:40;9.40;;;4.90;;
33381;SDS011;21342;48.786;9.166;2022-07-29T08:33:08;6.17;;;4.40;;
33381;SDS011;21342;48.786;9.166;2022-07-29T08:35:35;5.53;;;4.20;;
33381;SDS011;21342;48.786;9.166;2022-07-29T08:38:02;4.93;;;4.40;;
33381;SDS011;21342;48.786;9.166;2022-07-29T08:40:29;7.40;;;4.60;;
33381;SDS011;21342;48.786;9.166;2022-07-29T08:42:58;4.77;;;4.37;;
33381;SDS011;21342;48.786;9.166;2022-07-29T08:45:30;6.30;;;5.00;;
33381;SDS011;21342;48.786;9.166;2022-07-29T08:48:07;5.83;;;4.57;;
33381;SDS011;21342;48.786;9.166;2022-07-29T08:50:34;6.70;;;4.73;;
33381;SDS011;21342;48.786;9.166;2022-07-29T08:53:02;5.73;;;5.33;;
33381;SDS011;21342;48.786;9.166;2022-07-29T08:55:29;5.17;;;4.37;;
33381;SDS011;21342;48.786;9.166;2022-07-29T08:57:58;6.73;;;4.90;;
33381;SDS011;21342;48.786;9.166;2022-07-29T09:00:26;5.50;;;5.10;;
33381;SDS011;21342;48.786;9.166;2022-07-29T09:02:56;5.30;;;4.80;;
33381;SDS011;21342;48.786;9.166;2022-07-29T09:05:24;6.43;;;5.10;;
33381;SDS011;21342;48.786;9.166;2022-07-29T09:07:52;6.17;;;4.63;;
33381;SDS011;21342;48.786;9.166;2022-07-29T09:10:20;6.40;;;5.03;;
33381;SDS011;21342;48.786;9.166;2022-07-29T09:12:47;5.37;;;4.87;;
33381;SDS011;21342;48.786;9.166;2022-07-29T09:15:16;5.20;;;4.70;;
33381;SDS011;21342;48.786;9.166;2022-07-29T09:17:44;7.00;;;5.93;;
33381;SDS011;21342;48.786;9.166;2022-07-29T09:20:13;6.50;;;5.20;;
33381;SDS011;21342;48.786;9.166;2022-07-29T09:22:43;4.73;;;4.17;;
33381;SDS011;21342;48.786;9.166;2022-07-29T09:25:14;10.43;;;4.80;;
33381;SDS011;21342;48.786;9.166;2022-07-29T09:27:41;5.30;;;4.47;;
33381;SDS011;21342;48.786;9.166;2022-07-29T09:30:18;7.63;;;4.90;;
33381;SDS011;21342;48.786;9.166;2022-07-29T09:32:53;5.30;;;4.90;;
33381;SDS011;21342;48.786;9.166;2022-07-29T09:35:22;5.10;;;4.70;;
33381;SDS011;21342;48.786;9.166;2022-07-29T09:37:51;4.53;;;4.20;;
33381;SDS011;21342;48.786;9.166;2022-07-29T09:40:18;5.43;;;5.00;;
33381;SDS011;21342;48.786;9.166;2022-07-29T09:42:47;6.07;;;4.43;;
33381;SDS011;21342;48.786;9.166;2022-07-29T09:45:26;4.70;;;4.30;;
33381;SDS011;21342;48.786;9.166;2022-07-29T09:47:54;5.57;;;5.03;;
33381;SDS011;21342;48.786;9.166;2022-07-29T09:50:34;5.50;;;5.00;;
33381;SDS011;21342;48.786;9.166;2022-07-29T09:53:01;5.73;;;4.57;;
33381;SDS011;21342;48.786;9.166;2022-07-29T09:55:28;5.37;;;4.90;;
33381;SDS011;21342;48.786;9.166;2022-07-29T09:57:58;5.13;;;4.73;;
33381;SDS011;21342;48.786;9.166;2022-07-29T10:00:43;5.07;;;4.67;;
33381;SDS011;21342;48.786;9.166;2022-07-29T10:03:11;9.90;;;5.43;;
33381;SDS011;21342;48.786;9.166;2022-07-29T10:05:39;6.40;;;5.40;;
33381;SDS011;21342;48.786;9.166;2022-07-29T10:08:07;5.90;;;5.40;;
33381;SDS011;21342;48.786;9.166;2022-07-29T10:10:35;12.87;;;5.63;;
33381;SDS011;21342;48.786;9.166;2022-07-29T10:13:04;5.70;;;5.20;;
33381;SDS011;21342;48.786;9.166;2022-07-29T10:15:33;13.50;;;5.97;;
33381;SDS011;21342;48.786;9.166;2022-07-29T10:18:05;6.07;;;5.47;;
33381;SDS011;21342;48.786;9.166;2022-07-29T10:20:33;6.80;;;5.37;;
33381;SDS011;21342;48.786;9.166;2022-07-29T10:23:01;5.63;;;5.13;;
33381;SDS011;21342;48.786;9.166;2022-07-29T10:25:29;7.00;;;5.60;;
33381;SDS011;21342;48.786;9.166;2022-07-29T10:27:56;10.40;;;5.10;;
33381;SDS011;21342;48.786;9.166;2022-07-29T10:30:24;6.40;;;5.80;;
33381;SDS011;21342;48.786;9.166;2022-07-29T10:33:10;6.27;;;5.63;;
33381;SDS011;21342;48.786;9.166;2022-07-29T10:35:51;6.67;;;6.17;;
33381;SDS011;21342;48.786;9.166;2022-07-29T10:38:35;8.03;;;5.37;;
33381;SDS011;21342;48.786;9.166;2022-07-29T10:41:16;8.27;;;6.00;;
33381;SDS011;21342;48.786;9.166;2022-07-29T10:43:54;8.20;;;6.03;;
33381;SDS011;21342;48.786;9.166;2022-07-29T10:46:24;6.90;;;6.20;;
33381;SDS011;21342;48.786;9.166;2022-07-29T10:51:52;12.03;;;6.20;;
33381;SDS011;21342;48.786;9.166;2022-07-29T10:54:36;6.00;;;5.27;;
33381;SDS011;21342;48.786;9.166;2022-07-29T10:57:13;8.30;;;7.60;;
33381;SDS011;21342;48.786;9.166;2022-07-29T10:59:42;7.37;;;6.63;;
33381;SDS011;21342;48.786;9.166;2022-07-29T11:05:13;7.10;;;6.50;;
33381;SDS011;21342;48.786;9.166;2022-07-29T11:10:45;12.20;;;6.30;;
33381;SDS011;21342;48.786;9.166;2022-07-29T11:13:12;8.47;;;7.47;;
33381;SDS011;21342;48.786;9.166;2022-07-29T11:16:00;14.33;;;10.00;;
33381;SDS011;21342;48.786;9.166;2022-07-29T11:18:27;15.23;;;9.83;;
33381;SDS011;21342;48.786;9.166;2022-07-29T11:20:56;11.73;;;10.70;;
33381;SDS011;21342;48.786;9.166;2022-07-29T11:23:25;10.70;;;9.73;;
33381;SDS011;21342;48.786;9.166;2022-07-29T11:28:43;13.70;;;12.00;;
33381;SDS011;21342;48.786;9.166;2022-07-29T11:31:31;12.23;;;11.13;;
33381;SDS011;21342;48.786;9.166;2022-07-29T11:34:19;14.10;;;12.80;;
33381;SDS011;21342;48.786;9.166;2022-07-29T11:39:43;11.43;;;10.40;;
33381;SDS011;21342;48.786;9.166;2022-07-29T11:45:04;14.03;;;12.37;;
33381;SDS011;21342;48.786;9.166;2022-07-29T11:47:33;12.57;;;11.40;;
33381;SDS011;21342;48.786;9.166;2022-07-29T11:50:02;14.03;;;12.73;;
33381;SDS011;21342;48.786;9.166;2022-07-29T11:52:33;15.67;;;13.10;;
33381;SDS011;21342;48.786;9.166;2022-07-29T11:55:03;13.57;;;12.10;;
33381;SDS011;21342;48.786;9.166;2022-07-29T11:57:31;14.93;;;12.87;;
33381;SDS011;21342;48.786;9.166;2022-07-29T12:00:01;15.53;;;11.43;;
33381;SDS011;21342;48.786;9.166;2022-07-29T12:02:37;14.00;;;12.60;;
33381;SDS011;21342;48.786;9.166;2022-07-29T12:05:07;11.20;;;10.30;;
33381;SDS011;21342;48.786;9.166;2022-07-29T12:07:37;11.80;;;10.80;;
33381;SDS011;21342;48.786;9.166;2022-07-29T12:10:06;9.87;;;8.50;;
33381;SDS011;21342;48.786;9.166;2022-07-29T12:12:34;11.53;;;9.90;;
33381;SDS011;21342;48.786;9.166;2022-07-29T12:15:10;11.03;;;10.00;;
33381;SDS011;21342;48.786;9.166;2022-07-29T12:17:38;12.07;;;9.73;;
33381;SDS011;21342;48.786;9.166;2022-07-29T12:20:06;7.77;;;7.07;;
33381;SDS011;21342;48.786;9.166;2022-07-29T12:22:34;7.40;;;6.80;;
33381;SDS011;21342;48.786;9.166;2022-07-29T12:25:05;7.90;;;6.60;;
33381;SDS011;21342;48.786;9.166;2022-07-29T12:27:34;7.13;;;6.50;;
33381;SDS011;21342;48.786;9.166;2022-07-29T12:30:03;7.57;;;6.80;;
33381;SDS011;21342;48.786;9.166;2022-07-29T12:32:32;8.20;;;7.37;;
33381;SDS011;21342;48.786;9.166;2022-07-29T12:35:02;10.40;;;6.03;;
33381;SDS011;21342;48.786;9.166;2022-07-29T12:37:30;7.60;;;6.67;;
33381;SDS011;21342;48.786;9.166;2022-07-29T12:40:00;6.63;;;6.00;;
33381;SDS011;21342;48.786;9.166;2022-07-29T12:42:28;7.10;;;6.40;;
33381;SDS011;21342;48.786;9.166;2022-07-29T12:44:55;7.30;;;6.70;;
33381;SDS011;21342;48.786;9.166;2022-07-29T12:47:22;8.73;;;6.60;;
33381;SDS011;21342;48.786;9.166;2022-07-29T12:49:50;7.30;;;6.70;;
33381;SDS011;21342;48.786;9.166;2022-07-29T12:52:34;7.60;;;6.90;;
33381;SDS011;21342;48.786;9.166;2022-07-29T12:55:03;10.30;;;6.50;;
33381;SDS011;21342;48.786;9.166;2022-07-29T12:57:31;7.80;;;6.20;;
33381;SDS011;21342;48.786;9.166;2022-07-29T13:00:11;6.60;;;6.00;;
33381;SDS011;21342;48.786;9.166;2022-07-29T13:02:40;10.83;;;5.63;;
33381;SDS011;21342;48.786;9.166;2022-07-29T13:05:09;7.27;;;6.70;;
33381;SDS011;21342;48.786;9.166;2022-07-29T13:07:37;7.67;;;6.97;;
33381;SDS011;21342;48.786;9.166;2022-07-29T13:10:16;8.53;;;7.73;;
33381;SDS011;21342;48.786;9.166;2022-07-29T13:13:04;9.20;;;8.17;;
33381;SDS011;21342;48.786;9.166;2022-07-29T13:15:33;9.63;;;7.33;;
33381;SDS011;21342;48.786;9.166;2022-07-29T13:18:01;11.27;;;6.37;;
33381;SDS011;21342;48.786;9.166;2022-07-29T13:20:29;10.27;;;7.53;;
33381;SDS011;21342;48.786;9.166;2022-07-29T13:22:56;6.70;;;6.10;;
33381;SDS011;21342;48.786;9.166;2022-07-29T13:25:27;9.30;;;7.70;;
33381;SDS011;21342;48.786;9.166;2022-07-29T13:27:55;9.70;;;7.73;;
33381;SDS011;21342;48.786;9.166;2022-07-29T13:30:23;9.07;;;7.70;;
33381;SDS011;21342;48.786;9.166;2022-07-29T13:32:50;8.73;;;8.03;;
33381;SDS011;21342;48.786;9.166;2022-07-29T13:35:18;11.20;;;10.10;;
33381;SDS011;21342;48.786;9.166;2022-07-29T13:37:46;11.57;;;8.57;;
33381;SDS011;21342;48.786;9.166;2022-07-29T13:40:13;8.73;;;7.93;;
33381;SDS011;21342;48.786;9.166;2022-07-29T13:42:42;8.97;;;8.17;;
33381;SDS011;21342;48.786;9.166;2022-07-29T13:45:09;8.63;;;7.73;;
33381;SDS011;21342;48.786;9.166;2022-07-29T13:47:37;12.20;;;8.07;;
33381;SDS011;21342;48.786;9.166;2022-07-29T13:50:05;7.93;;;7.23;;
33381;SDS011;21342;48.786;9.166;2022-07-29T13:52:35;9.37;;;8.57;;
33381;SDS011;21342;48.786;9.166;2022-07-29T13:55:03;9.63;;;7.30;;
33381;SDS011;21342;48.786;9.166;2022-07-29T13:57:31;9.67;;;8.20;;
33381;SDS011;21342;48.786;9.166;2022-07-29T14:00:00;8.27;;;7.30;;
33381;SDS011;21342;48.786;9.166;2022-07-29T14:02:27;9.27;;;8.37;;
33381;SDS011;21342;48.786;9.166;2022-07-29T14:04:54;8.60;;;7.80;;
33381;SDS011;21342;48.786;9.166;2022-07-29T14:07:22;8.30;;;7.40;;
33381;SDS011;21342;48.786;9.166;2022-07-29T14:09:49;8.37;;;7.33;;
33381;SDS011;21342;48.786;9.166;2022-07-29T14:12:17;8.50;;;7.20;;
33381;SDS011;21342;48.786;9.166;2022-07-29T14:14:44;8.90;;;7.77;;
33381;SDS011;21342;48.786;9.166;2022-07-29T14:17:12;9.20;;;8.40;;
33381;SDS011;21342;48.786;9.166;2022-07-29T14:19:40;9.17;;;7.73;;
33381;SDS011;21342;48.786;9.166;2022-07-29T14:22:07;9.40;;;8.13;;
33381;SDS011;21342;48.786;9.166;2022-07-29T14:24:35;8.20;;;7.40;;
33381;SDS011;21342;48.786;9.166;2022-07-29T14:27:02;7.60;;;6.87;;
33381;SDS011;21342;48.786;9.166;2022-07-29T14:29:30;7.70;;;6.90;;
33381;SDS011;21342;48.786;9.166;2022-07-29T14:31:57;8.03;;;7.33;;
33381;SDS011;21342;48.786;9.166;2022-07-29T14:34:26;8.83;;;8.03;;
33381;SDS011;21342;48.786;9.166;2022-07-29T14:36:53;8.13;;;7.53;;
33381;SDS011;21342;48.786;9.166;2022-07-29T14:39:20;8.80;;;7.80;;
33381;SDS011;21342;48.786;9.166;2022-07-29T14:41:48;8.57;;;7.73;;
33381;SDS011;21342;48.786;9.166;2022-07-29T14:44:18;7.70;;;7.10;;
33381;SDS011;21342;48.786;9.166;2022-07-29T14:46:45;8.03;;;7.33;;
33381;SDS011;21342;48.786;9.166;2022-07-29T14:49:12;9.33;;;8.53;;
33381;SDS011;21342;48.786;9.166;2022-07-29T14:51:41;7.77;;;7.03;;
33381;SDS011;21342;48.786;9.166;2022-07-29T14:54:08;8.80;;;8.00;;
33381;SDS011;21342;48.786;9.166;2022-07-29T14:56:35;7.70;;;7.10;;
33381;SDS011;21342;48.786;9.166;2022-07-29T14:59:02;8.00;;;7.23;;
33381;SDS011;21342;48.786;9.166;2022-07-29T15:01:31;7.67;;;7.07;;
33381;SDS011;21342;48.786;9.166;2022-07-29T15:03:58;9.80;;;8.67;;
33381;SDS011;21342;48.786;9.166;2022-07-29T15:06:25;7.77;;;7.10;;
33381;SDS011;21342;48.786;9.166;2022-07-29T15:08:54;7.10;;;6.40;;
33381;SDS011;21342;48.786;9.166;2022-07-29T15:11:21;9.73;;;6.87;;
33381;SDS011;21342;48.786;9.166;2022-07-29T15:13:48;7.93;;;6.70;;
33381;SDS011;21342;48.786;9.166;2022-07-29T15:16:15;7.23;;;6.63;;